Time;durP1;ratioP1;P1;durP2;ratioP2;P2;SDS_P1;SDS_P2;PMS_P1;PMS_P2;Temp;Humidity;BMP_temperature;BMP_pressure;BME280_temperature;BME280_humidity;BME280_pressure;Samples;Min_cycle;Max_cycle;Signal;HPM_P1;HPM_P2
2022/07/06 00:01:28;;;;;;;2.03;1.83;;;28.10;36.40;;;;;;5068271;28;45475;-76
2022/07/06 00:03:54;;;;;;;2.10;1.63;;;28.00;36.40;;;;;;5068192;28;45542;-75
2022/07/06 00:06:21;;;;;;;2.38;1.88;;;28.00;36.50;;;;;;5067749;28;45300;-75
2022/07/06 00:08:48;;;;;;;1.70;1.60;;;28.00;36.50;;;;;;5067363;28;45127;-75
2022/07/06 00:11:15;;;;;;;1.90;1.73;;;28.00;36.50;;;;;;5067887;28;45407;-75
2022/07/06 00:13:43;;;;;;;1.90;1.67;;;28.00;36.40;;;;;;5068012;28;45285;-76
2022/07/06 00:16:10;;;;;;;2.00;1.80;;;27.90;36.50;;;;;;5066518;28;46356;-75
2022/07/06 00:18:37;;;;;;;1.60;1.50;;;27.90;36.60;;;;;;5067629;28;45230;-76
2022/07/06 00:21:03;;;;;;;1.92;1.80;;;27.90;36.50;;;;;;5067769;28;45291;-76
2022/07/06 00:23:30;;;;;;;2.03;1.65;;;27.90;36.60;;;;;;5067950;28;45223;-75
2022/07/06 00:25:57;;;;;;;2.38;1.67;;;27.90;36.60;;;;;;5066838;28;46379;-75
2022/07/06 00:28:24;;;;;;;1.70;1.60;;;27.90;36.60;;;;;;5067219;28;45213;-75
2022/07/06 00:30:52;;;;;;;3.25;1.95;;;27.80;36.60;;;;;;5067780;28;45238;-75
2022/07/06 00:33:19;;;;;;;1.90;1.73;;;27.80;36.70;;;;;;5067675;28;45400;-75
2022/07/06 00:35:46;;;;;;;1.88;1.60;;;27.70;36.70;;;;;;5067368;28;45418;-76
2022/07/06 00:38:13;;;;;;;1.98;1.80;;;27.70;36.70;;;;;;5067391;28;45313;-75
2022/07/06 00:40:39;;;;;;;2.13;1.77;;;27.70;36.80;;;;;;5067473;28;45182;-75
2022/07/06 00:43:06;;;;;;;2.25;1.77;;;27.70;36.90;;;;;;5067425;28;45400;-75
2022/07/06 00:45:33;;;;;;;3.50;1.92;;;27.70;36.90;;;;;;5067105;28;46312;-75
2022/07/06 00:48:01;;;;;;;1.83;1.73;;;27.60;36.80;;;;;;5067105;28;45393;-75
2022/07/06 00:50:28;;;;;;;2.40;2.00;;;27.60;36.90;;;;;;5067536;28;45291;-75
2022/07/06 00:52:56;;;;;;;1.70;1.60;;;27.60;37.00;;;;;;5067218;28;45224;-75
2022/07/06 00:55:24;;;;;;;1.88;1.75;;;27.60;37.00;;;;;;5066919;28;46424;-75
2022/07/06 00:57:51;;;;;;;2.20;2.00;;;27.50;37.00;;;;;;5066821;28;45411;-75
2022/07/06 01:00:19;;;;;;;2.10;1.90;;;27.50;37.00;;;;;;5067180;28;45329;-75
2022/07/06 01:02:46;;;;;;;2.00;1.90;;;27.50;37.10;;;;;;5067231;28;45434;-75
2022/07/06 01:05:15;;;;;;;2.20;2.00;;;27.50;37.10;;;;;;5066770;28;46398;-75
2022/07/06 01:07:43;;;;;;;1.90;1.70;;;27.50;37.10;;;;;;5066588;28;45224;-75
2022/07/06 01:10:11;;;;;;;1.95;1.70;;;27.50;37.20;;;;;;5066914;28;45181;-75
2022/07/06 01:12:38;;;;;;;2.72;2.22;;;27.50;37.10;;;;;;5067129;28;45148;-73
2022/07/06 01:15:06;;;;;;;2.00;1.80;;;27.40;37.10;;;;;;5065742;28;45228;-75
2022/07/06 01:17:33;;;;;;;2.47;2.17;;;27.40;37.20;;;;;;5066619;28;45250;-75
2022/07/06 01:20:09;;;;;;;2.45;2.00;;;27.40;37.20;;;;;;5066792;28;45174;-76
2022/07/06 01:22:36;;;;;;;1.77;1.67;;;27.40;37.20;;;;;;5067023;28;45274;-76
2022/07/06 01:25:03;;;;;;;1.83;1.73;;;27.30;37.30;;;;;;5066631;28;45485;-76
2022/07/06 01:27:29;;;;;;;2.20;2.00;;;27.30;37.20;;;;;;5067757;28;45289;-76
2022/07/06 01:29:56;;;;;;;2.15;1.92;;;27.30;37.20;;;;;;5070475;28;45288;-75
2022/07/06 01:32:23;;;;;;;1.85;1.60;;;27.30;37.30;;;;;;5070459;28;45401;-75
2022/07/06 01:34:50;;;;;;;1.98;1.80;;;27.30;37.30;;;;;;5070318;28;45290;-76
2022/07/06 01:37:18;;;;;;;2.88;2.10;;;27.20;37.30;;;;;;5070312;28;45257;-76
2022/07/06 01:39:45;;;;;;;2.75;1.95;;;27.20;37.40;;;;;;5070432;28;45506;-75
2022/07/06 01:42:11;;;;;;;2.10;1.90;;;27.20;37.30;;;;;;5070325;28;45281;-76
2022/07/06 01:44:38;;;;;;;1.90;1.80;;;27.20;37.30;;;;;;5069898;28;46476;-76
2022/07/06 01:47:05;;;;;;;2.00;1.85;;;27.10;37.40;;;;;;5069958;28;45186;-76
2022/07/06 01:49:32;;;;;;;3.22;1.67;;;27.10;37.40;;;;;;5070082;28;45157;-76
2022/07/06 01:51:59;;;;;;;1.65;1.52;;;27.10;37.30;;;;;;5070410;28;45258;-75
2022/07/06 01:54:27;;;;;;;2.17;1.98;;;27.10;37.50;;;;;;5069660;28;46368;-76
2022/07/06 01:56:54;;;;;;;2.05;1.85;;;27.10;37.40;;;;;;5069852;28;45286;-75
2022/07/06 01:59:20;;;;;;;1.95;1.63;;;27.00;37.40;;;;;;5069921;28;45197;-75
2022/07/06 02:01:47;;;;;;;1.70;1.60;;;27.00;37.50;;;;;;5069334;28;45372;-76
2022/07/06 02:04:14;;;;;;;2.00;1.80;;;27.00;37.50;;;;;;5069484;28;46356;-76
2022/07/06 02:06:41;;;;;;;1.80;1.70;;;27.00;37.50;;;;;;5069864;28;45330;-76
2022/07/06 02:09:08;;;;;;;1.80;1.70;;;27.00;37.50;;;;;;5069506;28;45241;-76
2022/07/06 02:11:36;;;;;;;2.03;1.70;;;27.00;37.60;;;;;;5069983;28;45162;-76
2022/07/06 02:14:03;;;;;;;3.00;1.92;;;27.00;37.60;;;;;;5069323;28;46417;-76
2022/07/06 02:16:29;;;;;;;1.60;1.50;;;26.90;37.60;;;;;;5069374;28;45322;-76
2022/07/06 02:18:56;;;;;;;2.67;1.92;;;26.90;37.60;;;;;;5069640;28;45226;-75
2022/07/06 02:21:23;;;;;;;1.98;1.88;;;26.90;38.20;;;;;;5069603;28;45403;-76
2022/07/06 02:23:50;;;;;;;2.47;1.73;;;26.90;37.70;;;;;;5069375;28;45196;-76
2022/07/06 02:26:16;;;;;;;1.77;1.67;;;26.80;37.60;;;;;;5069405;28;45178;-76
2022/07/06 02:28:46;;;;;;;2.03;1.90;;;26.80;37.70;;;;;;5063924;28;45172;-76
2022/07/06 02:31:13;;;;;;;1.58;1.48;;;26.80;37.70;;;;;;5049408;28;45559;-75
2022/07/06 02:33:39;;;;;;;1.88;1.77;;;26.80;37.70;;;;;;5049186;28;46378;-76
2022/07/06 02:36:06;;;;;;;1.77;1.60;;;26.80;37.80;;;;;;5049025;28;45183;-76
2022/07/06 02:38:33;;;;;;;2.25;1.67;;;26.70;37.80;;;;;;5048534;28;45241;-76
2022/07/06 02:41:00;;;;;;;1.83;1.65;;;26.70;37.80;;;;;;5049027;28;45461;-76
2022/07/06 02:43:27;;;;;;;2.38;1.60;;;26.70;37.80;;;;;;5048821;28;46335;-76
2022/07/06 02:45:55;;;;;;;2.78;2.08;;;26.70;37.80;;;;;;5048804;28;45262;-75
2022/07/06 02:48:22;;;;;;;2.17;1.95;;;26.70;37.90;;;;;;5048184;28;45270;-76
2022/07/06 02:50:48;;;;;;;1.60;1.50;;;26.60;37.80;;;;;;5049549;28;45195;-76
2022/07/06 02:53:15;;;;;;;1.80;1.70;;;26.60;38.50;;;;;;5048591;28;46358;-76
2022/07/06 02:55:42;;;;;;;1.70;1.60;;;26.60;37.90;;;;;;5048767;28;45230;-76
2022/07/06 02:58:09;;;;;;;1.70;1.60;;;26.60;37.90;;;;;;5048830;28;45242;-76
2022/07/06 03:00:36;;;;;;;1.55;1.45;;;26.50;37.90;;;;;;5048919;28;45450;-76
2022/07/06 03:03:04;;;;;;;1.88;1.70;;;26.50;38.00;;;;;;5048705;28;47376;-76
2022/07/06 03:05:31;;;;;;;1.95;1.65;;;26.50;37.90;;;;;;5048638;28;45262;-77
2022/07/06 03:07:57;;;;;;;1.50;1.40;;;26.50;37.90;;;;;;5048682;28;45303;-76
2022/07/06 03:10:24;;;;;;;1.63;1.52;;;26.50;38.10;;;;;;5048786;28;45151;-76
2022/07/06 03:12:51;;;;;;;1.65;1.55;;;26.40;38.00;;;;;;5048785;28;47618;-76
2022/07/06 03:15:18;;;;;;;1.70;1.60;;;26.40;38.10;;;;;;5048411;28;45218;-76
2022/07/06 03:17:45;;;;;;;1.58;1.48;;;26.40;38.10;;;;;;5048508;28;45300;-77
2022/07/06 03:20:13;;;;;;;2.40;1.60;;;26.40;38.00;;;;;;5048526;28;45210;-77
2022/07/06 03:22:40;;;;;;;1.50;1.40;;;26.40;38.00;;;;;;5048366;28;46391;-77
2022/07/06 03:25:07;;;;;;;1.40;1.30;;;26.40;38.10;;;;;;5048291;28;45243;-77
2022/07/06 03:27:35;;;;;;;1.70;1.60;;;26.30;38.10;;;;;;5048684;28;45273;-77
2022/07/06 03:30:02;;;;;;;1.73;1.63;;;26.40;38.20;;;;;;5065224;28;45304;-77
2022/07/06 03:32:31;;;;;;;1.55;1.45;;;26.30;38.20;;;;;;5067894;28;45429;-76
2022/07/06 03:34:58;;;;;;;1.70;1.60;;;26.30;38.10;;;;;;5067463;28;45223;-76
2022/07/06 03:37:26;;;;;;;1.70;1.60;;;26.30;38.10;;;;;;5068660;28;45337;-77
2022/07/06 03:39:53;;;;;;;1.77;1.67;;;26.30;38.20;;;;;;5068578;28;45234;-77
2022/07/06 03:42:20;;;;;;;1.50;1.40;;;26.20;38.10;;;;;;5068146;28;46451;-77
2022/07/06 03:44:46;;;;;;;1.50;1.40;;;26.20;38.10;;;;;;5068154;28;45188;-77
2022/07/06 03:47:13;;;;;;;1.75;1.65;;;26.20;38.10;;;;;;5068287;28;45233;-76
2022/07/06 03:49:40;;;;;;;1.70;1.60;;;26.20;38.20;;;;;;5068353;28;45233;-77
2022/07/06 03:52:07;;;;;;;1.27;1.17;;;26.20;38.20;;;;;;5068019;28;46769;-77
2022/07/06 03:54:35;;;;;;;1.60;1.50;;;26.10;38.20;;;;;;5067999;28;45301;-76
2022/07/06 03:57:02;;;;;;;1.60;1.50;;;26.10;38.20;;;;;;5068272;28;45259;-77
2022/07/06 03:59:29;;;;;;;1.63;1.52;;;26.10;38.20;;;;;;5068373;28;45246;-77
2022/07/06 04:01:55;;;;;;;1.77;1.67;;;26.10;38.20;;;;;;5067869;28;45296;-76
2022/07/06 04:04:22;;;;;;;1.50;1.40;;;26.10;38.20;;;;;;5067744;28;45253;-77
2022/07/06 04:06:49;;;;;;;1.70;1.60;;;26.00;38.20;;;;;;5067666;28;45294;-77
2022/07/06 04:09:16;;;;;;;1.95;1.58;;;26.00;38.20;;;;;;5068035;28;45193;-77
2022/07/06 04:11:44;;;;;;;1.67;1.58;;;26.00;38.20;;;;;;5067701;28;47379;-77
2022/07/06 04:14:11;;;;;;;1.33;1.23;;;26.00;38.30;;;;;;5067848;28;45348;-77
2022/07/06 04:16:37;;;;;;;1.58;1.48;;;26.00;38.30;;;;;;5067773;28;45249;-77
2022/07/06 04:19:04;;;;;;;1.55;1.45;;;26.00;38.30;;;;;;5067296;28;45222;-77
2022/07/06 04:21:31;;;;;;;2.08;1.33;;;26.00;38.30;;;;;;5067433;28;45225;-77
2022/07/06 04:23:58;;;;;;;1.40;1.30;;;26.00;38.30;;;;;;5067651;28;45198;-77
2022/07/06 04:26:25;;;;;;;1.70;1.60;;;25.90;38.30;;;;;;5067705;28;45385;-76
2022/07/06 04:28:53;;;;;;;1.33;1.23;;;25.90;38.30;;;;;;5067589;28;45453;-77
2022/07/06 04:31:20;;;;;;;1.65;1.38;;;25.90;38.30;;;;;;5067463;28;46421;-77
2022/07/06 04:33:47;;;;;;;1.40;1.30;;;25.90;38.40;;;;;;5067456;28;45213;-76
2022/07/06 04:36:13;;;;;;;1.67;1.58;;;25.90;38.30;;;;;;5067756;28;45230;-77
2022/07/06 04:38:40;;;;;;;1.80;1.70;;;25.90;38.40;;;;;;5067584;28;45289;-77
2022/07/06 04:41:07;;;;;;;1.20;1.17;;;25.90;38.40;;;;;;5067438;28;47284;-76
2022/07/06 04:43:34;;;;;;;1.35;1.30;;;25.80;38.40;;;;;;5067325;28;45308;-76
2022/07/06 04:46:02;;;;;;;1.55;1.40;;;25.80;38.40;;;;;;5068095;28;45273;-77
2022/07/06 04:48:29;;;;;;;1.20;1.20;;;25.90;38.40;;;;;;5067649;28;45384;-77
2022/07/06 04:50:56;;;;;;;1.30;1.20;;;25.80;38.40;;;;;;5067366;28;45880;-77
2022/07/06 04:53:23;;;;;;;1.42;1.33;;;25.80;38.40;;;;;;5067155;28;45304;-77
2022/07/06 04:55:49;;;;;;;1.35;1.25;;;25.80;38.40;;;;;;5067040;28;45364;-77
2022/07/06 04:58:16;;;;;;;1.40;1.30;;;25.80;38.40;;;;;;5067573;28;45237;-77
2022/07/06 05:00:43;;;;;;;1.60;1.40;;;25.70;38.40;;;;;;5066927;28;46515;-77
2022/07/06 05:03:11;;;;;;;1.63;1.20;;;25.80;38.50;;;;;;5065876;28;45369;-77
2022/07/06 05:05:38;;;;;;;1.38;1.27;;;25.70;38.40;;;;;;5066629;28;45321;-77
2022/07/06 05:08:05;;;;;;;1.33;1.23;;;25.80;38.50;;;;;;5067277;28;45389;-77
2022/07/06 05:10:32;;;;;;;1.20;1.10;;;25.70;38.40;;;;;;5066865;28;46439;-77
2022/07/06 05:12:59;;;;;;;1.20;1.20;;;25.70;38.50;;;;;;5066828;28;45250;-76
2022/07/06 05:15:26;;;;;;;1.42;1.33;;;25.70;38.50;;;;;;5066821;28;45303;-76
2022/07/06 05:17:52;;;;;;;1.52;1.20;;;25.70;38.50;;;;;;5067011;28;45347;-77
2022/07/06 05:20:21;;;;;;;1.40;1.30;;;25.70;38.50;;;;;;5067237;28;46412;-77
2022/07/06 05:22:47;;;;;;;1.10;1.00;;;25.70;38.40;;;;;;5066718;28;45170;-77
2022/07/06 05:25:14;;;;;;;1.30;1.20;;;25.70;38.40;;;;;;5067240;28;45135;-74
2022/07/06 05:27:41;;;;;;;1.38;1.27;;;25.80;38.50;;;;;;5066886;28;45413;-75
2022/07/06 05:30:09;;;;;;;2.10;1.40;;;25.80;38.50;;;;;;5066701;28;46830;-75
2022/07/06 05:32:36;;;;;;;1.40;1.30;;;25.70;38.40;;;;;;5066599;28;45144;-75
2022/07/06 05:35:03;;;;;;;1.25;1.15;;;25.70;38.40;;;;;;5066809;28;45262;-75
2022/07/06 05:37:31;;;;;;;1.23;1.23;;;25.70;38.50;;;;;;5068233;28;45246;-75
2022/07/06 05:39:58;;;;;;;1.30;1.20;;;25.70;38.50;;;;;;5066342;28;45583;-75
2022/07/06 05:42:25;;;;;;;1.23;1.10;;;25.70;38.50;;;;;;5066399;28;45271;-75
2022/07/06 05:44:55;;;;;;;1.30;1.20;;;25.70;38.50;;;;;;5066685;28;45203;-75
2022/07/06 05:50:14;;;;;;;1.25;1.23;;;25.70;38.60;;;;;;5063823;28;45372;-75
2022/07/06 05:52:42;;;;;;;1.40;1.30;;;25.60;38.60;;;;;;5066607;28;45187;-75
2022/07/06 05:55:09;;;;;;;1.60;1.17;;;25.60;38.60;;;;;;5066527;28;45293;-75
2022/07/06 05:57:36;;;;;;;1.30;1.20;;;25.60;38.60;;;;;;5066683;28;45523;-77
2022/07/06 06:00:04;;;;;;;1.50;1.35;;;25.60;38.60;;;;;;5065464;28;47259;-75
2022/07/06 06:02:38;;;;;;;1.02;1.02;;;25.60;39.00;;;;;;5066216;28;45205;-75
2022/07/06 06:05:05;;;;;;;1.17;1.08;;;25.60;38.70;;;;;;5066452;28;45159;-75
2022/07/06 06:07:34;;;;;;;1.40;1.30;;;25.60;38.70;;;;;;5066158;28;45293;-75
2022/07/06 06:10:03;;;;;;;1.27;1.17;;;25.60;38.70;;;;;;5066391;28;45513;-75
2022/07/06 06:12:29;;;;;;;1.13;1.13;;;25.60;38.70;;;;;;5066182;28;45130;-74
2022/07/06 06:14:56;;;;;;;1.55;1.35;;;25.60;38.70;;;;;;5068012;28;45330;-74
2022/07/06 06:17:23;;;;;;;0.90;0.90;;;25.70;38.80;;;;;;5069940;28;45397;-75
2022/07/06 06:19:50;;;;;;;1.45;1.20;;;25.60;38.80;;;;;;5069522;28;45360;-76
2022/07/06 06:22:17;;;;;;;1.55;1.13;;;25.60;38.80;;;;;;5069403;28;45190;-74
2022/07/06 06:24:43;;;;;;;1.30;1.20;;;25.70;38.80;;;;;;5066930;28;45276;-77
2022/07/06 06:27:12;;;;;;;1.13;1.13;;;25.70;38.80;;;;;;5070142;28;45208;-75
2022/07/06 06:29:38;;;;;;;1.10;1.10;;;25.70;38.80;;;;;;5055668;28;46617;-75
2022/07/06 06:32:06;;;;;;;1.42;1.33;;;25.70;38.80;;;;;;5049159;28;45302;-75
2022/07/06 06:34:32;;;;;;;1.95;1.40;;;25.70;38.80;;;;;;5049068;28;45186;-77
2022/07/06 06:36:59;;;;;;;1.00;1.00;;;25.70;38.80;;;;;;5049217;28;45468;-74
2022/07/06 06:39:26;;;;;;;1.30;1.20;;;25.70;38.80;;;;;;5046472;28;45392;-73
2022/07/06 06:41:56;;;;;;;1.20;1.10;;;25.70;38.90;;;;;;5046556;28;45431;-77
2022/07/06 06:44:24;;;;;;;1.10;1.00;;;25.70;38.90;;;;;;5049257;28;45274;-74
2022/07/06 06:46:51;;;;;;;1.13;1.10;;;25.70;38.90;;;;;;5049081;28;45397;-74
2022/07/06 06:49:18;;;;;;;1.60;1.33;;;25.70;39.00;;;;;;5048582;28;48027;-75
2022/07/06 06:51:45;;;;;;;1.30;1.20;;;25.70;39.10;;;;;;5048883;28;45354;-75
2022/07/06 06:54:12;;;;;;;2.42;1.42;;;25.70;39.10;;;;;;5048798;28;45261;-75
2022/07/06 06:56:39;;;;;;;1.30;1.20;;;25.70;39.20;;;;;;5049129;28;45238;-74
2022/07/06 06:59:06;;;;;;;1.60;1.20;;;25.70;39.30;;;;;;5048484;28;46498;-78
2022/07/06 07:01:34;;;;;;;1.10;1.10;;;25.70;39.40;;;;;;5048428;28;45327;-76
2022/07/06 07:04:01;;;;;;;1.38;1.30;;;25.70;39.40;;;;;;5048771;28;45253;-74
2022/07/06 07:06:27;;;;;;;1.20;1.10;;;25.70;39.50;;;;;;5048892;28;45279;-74
2022/07/06 07:08:55;;;;;;;1.17;1.13;;;25.70;39.60;;;;;;5048090;28;45188;-74
2022/07/06 07:11:22;;;;;;;3.22;1.33;;;25.70;39.70;;;;;;5048638;28;45259;-75
2022/07/06 07:13:49;;;;;;;1.45;1.35;;;25.70;39.80;;;;;;5048424;28;45405;-75
2022/07/06 07:16:16;;;;;;;1.17;1.08;;;25.70;39.70;;;;;;5048502;28;45321;-75
2022/07/06 07:18:44;;;;;;;1.50;1.40;;;25.60;39.80;;;;;;5048250;28;45473;-75
2022/07/06 07:21:11;;;;;;;1.40;1.30;;;25.70;40.50;;;;;;5048473;28;45255;-75
2022/07/06 07:23:37;;;;;;;1.42;1.30;;;25.60;39.90;;;;;;5048376;28;45368;-75
2022/07/06 07:26:04;;;;;;;1.42;1.33;;;25.60;39.90;;;;;;5048106;28;45378;-75
2022/07/06 07:28:31;;;;;;;1.17;1.08;;;25.60;40.00;;;;;;5051879;28;46406;-75
2022/07/06 07:30:58;;;;;;;1.40;1.30;;;25.60;40.10;;;;;;5068255;28;45237;-75
2022/07/06 07:33:25;;;;;;;1.77;1.38;;;25.60;40.10;;;;;;5068067;28;45297;-75
2022/07/06 07:35:53;;;;;;;1.40;1.30;;;25.60;40.10;;;;;;5068460;28;45321;-76
2022/07/06 07:38:20;;;;;;;1.00;1.00;;;25.70;40.20;;;;;;5068206;28;46663;-75
2022/07/06 07:40:46;;;;;;;1.42;1.30;;;25.70;40.20;;;;;;5068244;28;45363;-76
2022/07/06 07:43:13;;;;;;;1.27;1.27;;;25.70;40.10;;;;;;5068484;28;45216;-75
2022/07/06 07:45:40;;;;;;;3.83;1.58;;;25.70;40.20;;;;;;5068394;28;45548;-75
2022/07/06 07:48:07;;;;;;;1.58;1.30;;;25.70;40.70;;;;;;5068239;28;46375;-75
2022/07/06 07:50:34;;;;;;;1.70;1.60;;;25.80;40.20;;;;;;5066718;28;45426;-75
2022/07/06 07:53:03;;;;;;;1.25;1.20;;;25.80;40.20;;;;;;5068029;28;45444;-75
2022/07/06 07:55:29;;;;;;;2.17;1.38;;;25.80;40.20;;;;;;5068101;28;45228;-74
2022/07/06 07:57:56;;;;;;;1.40;1.30;;;25.80;40.30;;;;;;5067830;28;46356;-75
2022/07/06 08:00:24;;;;;;;1.65;1.10;;;25.80;40.30;;;;;;5068110;28;45417;-75
2022/07/06 08:02:51;;;;;;;1.05;1.05;;;25.80;40.30;;;;;;5068021;28;45344;-75
2022/07/06 08:05:18;;;;;;;1.50;1.40;;;25.80;40.30;;;;;;5068098;28;45374;-75
2022/07/06 08:07:45;;;;;;;1.38;1.33;;;25.90;40.30;;;;;;5067557;28;45319;-75
2022/07/06 08:10:13;;;;;;;1.25;1.15;;;25.90;40.30;;;;;;5067925;28;45237;-74
2022/07/06 08:12:40;;;;;;;1.40;1.20;;;25.90;40.30;;;;;;5067566;28;45605;-74
2022/07/06 08:15:08;;;;;;;1.45;1.25;;;25.90;40.90;;;;;;5067971;28;45500;-74
2022/07/06 08:17:35;;;;;;;1.95;1.20;;;25.90;40.30;;;;;;5067541;28;47020;-74
2022/07/06 08:20:02;;;;;;;1.88;1.30;;;25.90;40.30;;;;;;5067280;28;45241;-74
2022/07/06 08:22:29;;;;;;;1.80;1.23;;;25.90;40.30;;;;;;5068676;28;45391;-74
2022/07/06 08:24:56;;;;;;;1.90;1.38;;;25.90;40.30;;;;;;5068257;28;45356;-75
2022/07/06 08:27:24;;;;;;;1.45;1.20;;;25.90;40.30;;;;;;5067376;28;46663;-74
2022/07/06 08:29:51;;;;;;;2.28;1.30;;;26.00;40.40;;;;;;5052849;28;45342;-75
2022/07/06 08:32:19;;;;;;;1.10;1.10;;;26.00;40.30;;;;;;5047228;28;45210;-75
2022/07/06 08:34:46;;;;;;;1.20;1.10;;;26.00;40.30;;;;;;5050246;28;45322;-74
2022/07/06 08:37:13;;;;;;;1.42;1.33;;;26.00;40.30;;;;;;5046582;28;46306;-74
2022/07/06 08:39:40;;;;;;;1.40;1.30;;;26.00;40.40;;;;;;5049381;28;45177;-75
2022/07/06 08:42:07;;;;;;;1.30;1.15;;;26.00;40.40;;;;;;5047127;28;45242;-75
2022/07/06 08:44:36;;;;;;;3.00;1.40;;;26.00;40.40;;;;;;5047526;28;45444;-75
2022/07/06 08:47:03;;;;;;;1.33;1.17;;;26.00;40.40;;;;;;5046937;28;46670;-75
2022/07/06 08:49:31;;;;;;;1.70;1.23;;;26.00;40.40;;;;;;5046940;28;45268;-74
2022/07/06 08:51:57;;;;;;;2.80;1.33;;;26.10;40.40;;;;;;5046998;28;45209;-74
2022/07/06 08:54:24;;;;;;;2.15;1.17;;;26.10;40.50;;;;;;5047030;28;45218;-75
2022/07/06 08:56:51;;;;;;;2.90;1.40;;;26.10;40.50;;;;;;5046756;28;46646;-75
2022/07/06 08:59:18;;;;;;;2.50;1.33;;;26.10;40.50;;;;;;5046271;28;45349;-75
2022/07/06 09:01:47;;;;;;;1.20;1.10;;;26.10;40.50;;;;;;5046602;28;45302;-74
2022/07/06 09:04:14;;;;;;;1.48;1.30;;;26.10;40.60;;;;;;5046873;28;45567;-74
2022/07/06 09:06:41;;;;;;;2.72;1.23;;;26.20;40.60;;;;;;5045978;28;45600;-75
2022/07/06 09:09:08;;;;;;;2.17;1.45;;;26.20;40.60;;;;;;5046372;28;45302;-74
2022/07/06 09:11:35;;;;;;;1.35;1.27;;;26.20;40.60;;;;;;5046821;28;45206;-72
2022/07/06 09:14:02;;;;;;;1.13;1.10;;;26.20;40.70;;;;;;5047027;28;45211;-74
2022/07/06 09:16:30;;;;;;;1.42;1.20;;;26.20;40.70;;;;;;5046527;28;46372;-73
2022/07/06 09:18:58;;;;;;;1.20;1.10;;;26.20;40.70;;;;;;5046635;28;45278;-74
2022/07/06 09:21:25;;;;;;;1.10;1.10;;;26.30;40.80;;;;;;5046770;28;45198;-74
2022/07/06 09:23:55;;;;;;;2.33;1.60;;;26.30;40.70;;;;;;5046789;28;45350;-74
2022/07/06 09:26:22;;;;;;;2.22;1.42;;;26.30;40.80;;;;;;5046441;28;45737;-74
2022/07/06 09:28:49;;;;;;;1.98;1.20;;;26.30;40.80;;;;;;5052721;28;45335;-74
2022/07/06 09:31:15;;;;;;;1.10;1.10;;;26.30;40.80;;;;;;5066561;28;45264;-74
2022/07/06 09:33:54;;;;;;;1.27;1.23;;;26.30;40.80;;;;;;5066746;28;45313;-74
2022/07/06 09:36:38;;;;;;;1.30;1.20;;;26.40;40.80;;;;;;5066136;28;45426;-74
2022/07/06 09:39:19;;;;;;;1.30;1.20;;;26.40;40.90;;;;;;5066278;28;45431;-74
2022/07/06 09:41:46;;;;;;;1.17;1.10;;;26.40;40.70;;;;;;5066510;28;45265;-74
2022/07/06 09:44:12;;;;;;;1.25;1.25;;;26.40;40.70;;;;;;5066719;28;45153;-71
2022/07/06 09:46:42;;;;;;;1.20;1.20;;;26.40;40.80;;;;;;5066226;28;45306;-74
2022/07/06 09:49:09;;;;;;;2.65;1.17;;;26.40;40.80;;;;;;5068928;28;45413;-74
2022/07/06 09:51:38;;;;;;;1.40;1.30;;;26.40;40.50;;;;;;5069954;28;45259;-74
2022/07/06 09:54:08;;;;;;;1.48;1.30;;;26.50;40.80;;;;;;5070268;28;45310;-74
2022/07/06 09:56:38;;;;;;;1.30;1.20;;;26.50;40.80;;;;;;5069555;28;46662;-74
2022/07/06 09:59:09;;;;;;;1.33;1.23;;;26.50;40.70;;;;;;5069682;28;45312;-73
2022/07/06 10:01:37;;;;;;;1.25;1.08;;;26.50;40.80;;;;;;5069487;28;45249;-74
2022/07/06 10:04:04;;;;;;;1.63;1.52;;;26.60;41.10;;;;;;5069873;28;45395;-73
2022/07/06 10:06:30;;;;;;;1.42;1.27;;;26.60;41.00;;;;;;5069619;28;46287;-73
2022/07/06 10:08:59;;;;;;;1.10;1.10;;;26.60;40.90;;;;;;5068882;28;45299;-74
2022/07/06 10:11:26;;;;;;;1.10;1.10;;;26.60;40.80;;;;;;5069068;28;45211;-73
2022/07/06 10:13:54;;;;;;;1.58;1.20;;;26.60;41.00;;;;;;5069761;28;45161;-74
2022/07/06 10:16:22;;;;;;;2.05;1.13;;;26.70;41.10;;;;;;5069302;28;45465;-74
2022/07/06 10:18:49;;;;;;;1.15;1.10;;;26.70;41.00;;;;;;5069496;28;45364;-74
2022/07/06 10:21:16;;;;;;;1.42;1.33;;;26.70;40.80;;;;;;5069492;28;45325;-74
2022/07/06 10:23:43;;;;;;;1.60;1.50;;;26.70;40.80;;;;;;5069894;28;45162;-74
2022/07/06 10:26:11;;;;;;;1.50;1.40;;;26.80;40.50;;;;;;5067045;28;47262;-74
2022/07/06 10:28:38;;;;;;;1.17;1.17;;;26.80;40.50;;;;;;5053641;28;45467;-74
2022/07/06 10:31:05;;;;;;;1.95;1.00;;;26.80;40.50;;;;;;5069167;28;45265;-73
2022/07/06 10:33:32;;;;;;;1.70;1.17;;;26.80;40.80;;;;;;5069397;28;45240;-73
2022/07/06 10:35:59;;;;;;;1.42;1.25;;;26.90;40.70;;;;;;5069021;28;45260;-73
2022/07/06 10:38:32;;;;;;;1.00;1.00;;;26.90;40.80;;;;;;5069311;28;45300;-74
2022/07/06 10:41:05;;;;;;;1.27;1.17;;;26.90;41.30;;;;;;5069244;28;45148;-73
2022/07/06 10:43:37;;;;;;;1.27;1.20;;;27.00;40.90;;;;;;5069332;28;45483;-76
2022/07/06 10:46:07;;;;;;;1.30;1.20;;;26.90;40.60;;;;;;5068955;28;46372;-74
2022/07/06 10:48:37;;;;;;;1.45;1.35;;;27.00;40.90;;;;;;5068938;28;45165;-74
2022/07/06 10:51:05;;;;;;;1.42;1.30;;;27.00;40.60;;;;;;5069209;28;45242;-74
2022/07/06 10:53:34;;;;;;;1.42;1.30;;;27.10;40.70;;;;;;5069266;28;45258;-74
2022/07/06 10:56:01;;;;;;;1.45;1.25;;;27.10;40.40;;;;;;5068975;28;47864;-73
2022/07/06 10:58:47;;;;;;;1.42;1.20;;;27.10;40.30;;;;;;5068906;28;45408;-73
2022/07/06 11:01:14;;;;;;;1.33;1.20;;;27.10;40.40;;;;;;5067564;28;45349;-73
2022/07/06 11:03:42;;;;;;;1.50;1.20;;;27.20;40.20;;;;;;5068875;28;45166;-73
2022/07/06 11:06:12;;;;;;;1.00;1.00;;;27.20;40.20;;;;;;5068582;28;45476;-73
2022/07/06 11:08:52;;;;;;;1.30;1.20;;;27.30;40.10;;;;;;5068040;28;45297;-74
2022/07/06 11:11:21;;;;;;;1.77;1.15;;;27.30;40.00;;;;;;5068706;28;45182;-73
2022/07/06 11:13:53;;;;;;;1.33;1.23;;;27.30;39.90;;;;;;5068626;28;45352;-74
2022/07/06 11:16:21;;;;;;;1.45;1.20;;;27.40;40.00;;;;;;5068070;28;47327;-72
2022/07/06 11:18:48;;;;;;;1.15;1.08;;;27.40;39.80;;;;;;5067624;28;45285;-73
2022/07/06 11:21:22;;;;;;;1.15;1.10;;;27.40;39.60;;;;;;5068416;28;45344;-74
2022/07/06 11:23:50;;;;;;;1.08;1.05;;;27.50;39.60;;;;;;5068817;28;45328;-73
2022/07/06 11:26:17;;;;;;;1.27;1.10;;;27.50;40.00;;;;;;5068081;28;47400;-73
2022/07/06 11:28:46;;;;;;;1.00;1.00;;;27.60;39.20;;;;;;5062651;28;45249;-73
2022/07/06 11:31:14;;;;;;;1.42;1.33;;;27.60;39.10;;;;;;5048050;28;45230;-73
2022/07/06 11:33:41;;;;;;;1.20;1.10;;;27.70;39.10;;;;;;5047996;28;45393;-73
2022/07/06 11:36:15;;;;;;;1.60;1.13;;;27.70;39.00;;;;;;5047701;28;45371;-73
2022/07/06 11:38:42;;;;;;;1.10;1.05;;;27.70;38.90;;;;;;5047932;28;45189;-73
2022/07/06 11:41:09;;;;;;;1.60;1.10;;;27.80;38.80;;;;;;5047968;28;45240;-73
2022/07/06 11:43:37;;;;;;;1.60;1.30;;;27.80;38.70;;;;;;5048152;28;45288;-73
2022/07/06 11:46:04;;;;;;;1.50;1.20;;;27.90;38.60;;;;;;5047695;28;46676;-73
2022/07/06 11:48:32;;;;;;;1.27;1.17;;;28.00;38.50;;;;;;5047943;28;45249;-73
2022/07/06 11:51:00;;;;;;;3.95;1.40;;;28.00;39.20;;;;;;5048106;28;45210;-73
2022/07/06 11:53:27;;;;;;;0.90;0.90;;;28.10;38.60;;;;;;5048079;28;45393;-73
2022/07/06 11:55:53;;;;;;;2.40;1.20;;;28.20;39.20;;;;;;5047664;28;45553;-73
2022/07/06 11:58:22;;;;;;;1.38;1.27;;;28.20;38.40;;;;;;5047745;28;45207;-72
2022/07/06 12:01:04;;;;;;;1.17;1.00;;;28.20;38.30;;;;;;5047760;28;45327;-73
2022/07/06 12:03:32;;;;;;;1.73;1.23;;;28.30;38.20;;;;;;5047668;28;45468;-73
2022/07/06 12:05:59;;;;;;;1.20;1.20;;;28.40;38.10;;;;;;5047253;28;45312;-72
2022/07/06 12:08:26;;;;;;;1.38;1.20;;;28.40;38.00;;;;;;5047394;28;45321;-73
2022/07/06 12:10:53;;;;;;;1.30;1.15;;;28.40;37.80;;;;;;5047569;28;45366;-73
2022/07/06 12:13:20;;;;;;;1.63;1.30;;;28.50;37.70;;;;;;5045835;28;45421;-73
2022/07/06 12:15:47;;;;;;;2.03;1.45;;;28.50;37.50;;;;;;5046863;28;45490;-72
2022/07/06 12:18:14;;;;;;;1.00;1.00;;;28.60;37.70;;;;;;5047323;28;45206;-72
2022/07/06 12:20:42;;;;;;;1.48;1.25;;;28.60;37.60;;;;;;5047391;28;45341;-72
2022/07/06 12:23:09;;;;;;;1.88;1.20;;;28.70;37.40;;;;;;5047369;28;45408;-73
2022/07/06 12:25:36;;;;;;;1.45;1.30;;;28.80;38.00;;;;;;5047233;28;47211;-72
2022/07/06 12:28:03;;;;;;;1.80;1.10;;;28.80;37.20;;;;;;5047069;28;45201;-73
2022/07/06 12:30:30;;;;;;;1.58;1.48;;;28.90;36.90;;;;;;5047273;28;45202;-72
2022/07/06 12:33:12;;;;;;;1.55;1.45;;;28.90;37.00;;;;;;5047236;28;45277;-73
2022/07/06 12:35:39;;;;;;;1.42;1.10;;;28.90;37.00;;;;;;5043465;28;46523;-72
2022/07/06 12:38:08;;;;;;;1.13;1.10;;;29.00;37.00;;;;;;5046938;28;45391;-72
2022/07/06 12:40:36;;;;;;;1.45;1.33;;;29.00;36.90;;;;;;5047383;28;45348;-72
2022/07/06 12:43:03;;;;;;;1.63;1.10;;;29.10;36.60;;;;;;5047108;28;45470;-72
2022/07/06 12:45:30;;;;;;;1.70;1.33;;;29.10;36.60;;;;;;5046893;28;45211;-74
2022/07/06 12:48:00;;;;;;;1.30;1.20;;;29.20;36.60;;;;;;5046876;28;45365;-72
2022/07/06 12:50:34;;;;;;;1.52;1.25;;;29.20;36.60;;;;;;5046368;28;45222;-72
2022/07/06 12:53:01;;;;;;;1.70;1.30;;;29.30;36.70;;;;;;5046809;28;45424;-72